logo
App data

Cosmic Leap

Time your jumps from planet to planet, avoid the obstacles thrown in your path and blast off to safety with your rocketship!
Store | Hub | SteamDB | Site
Developer: Michael Hall Publisher: Michael Hall
Genre: Action, Indie
Languages: English, Spanish - Spain, German
Tags: Indie (32), Action (31)
Category: Single-player, Steam Achievements, Full controller support, Steam Trading Cards, Steam Cloud
Release date: Mar 17, 2016
Price: $0.49 51%
Old userscore: 72% Owners: 0 .. 20,000
Followers: 171
Peak concurrent players yesterday: 2
YouTube stats: 6 views and 1 comments for top 50 videos uploaded last week, 2 new videos uploaded yesterday.

Steam Spy is still in beta, so expect major bugs.

Owners data:

Access restricted.

This feature is only available to users with special access rights. Sorry.

If you want to proceed, you need to register or log in first and then back Steam Spy on Patreon. Look for Indie or Pro pledge.

Don't forget to use the same email as on Steam Spy!

Audience in 2 weeks:

Access restricted.

This feature is only available to users with special access rights. Sorry.

If you want to proceed, you need to register or log in first and then back Steam Spy on Patreon. Look for Indie or Pro pledge.

Don't forget to use the same email as on Steam Spy!

Peak daily concurrent players:

CCU data courtesy of SteamDB. Used with permission.

Hourly concurrent players:

Followers over time

Access restricted.

This feature is only available to users with special access rights. Sorry.

If you want to proceed, you need to register or log in first and then back Steam Spy on Patreon. Look for Indie or Pro pledge.

Don't forget to use the same email as on Steam Spy!

Views for top 50 videos on YouTube for this game:

Games similar to this one:

# Game Release date
Price
Score rank
(Userscore / Metascore)
Owners
Players
Playtime (Median)
1 10 Second Ninja X Jul 19, 2016 $0.99N/A (N/A)200,000 .. 500,0000%00:00 (00:00)
2 Emerge: Cities of the Apocalypse Apr 27, 2016 $1.19N/A (N/A)50,000 .. 100,0000%00:00 (00:00)
3 Empire of the Gods May 13, 2008 $0.99N/A (N/A)20,000 .. 50,0000%00:00 (00:00)
4 Wrath of Anna Apr 2, 2018 $6.99N/A (N/A)50,000 .. 100,0000%00:00 (00:00)
5 Mindless Running Feb 22, 2016 $0.49N/A (N/A)20,000 .. 50,0000%00:00 (00:00)
6 Perraw - FPS Clone War Alpha Jan 29, 2016 $0.59N/A (N/A)0 .. 20,0000%00:00 (00:00)
7 Mimpi Dreams Mar 22, 2016 FreeN/A (N/A)50,000 .. 100,0000%00:00 (00:00)
8 Godus Wars Feb 3, 2016 $14.99N/A (N/A)50,000 .. 100,0000%00:00 (00:00)
9 Yon Paradox May 6, 2016 $0.5N/A (N/A)0 .. 20,0000%00:00 (00:00)
10 Bell Ringer Mar 6, 2016 $6.99N/A (N/A)200,000 .. 500,0000%00:00 (00:00)
11 Cube Land Arena Mar 29, 2016 $0.49N/A (N/A)50,000 .. 100,0000%00:00 (00:00)
12 PERFECT ANGLE: The puzzle game based on optical illusions Dec 22, 2015 $2.49N/A (N/A)50,000 .. 100,0000%00:00 (00:00)
13 Hero Quest: Tower Conflict Apr 13, 2016 $0.49N/A (N/A)200,000 .. 500,0000%00:00 (00:00)
14 Doodle Kingdom Jun 9, 2016 $2.6N/A (N/A)20,000 .. 50,0000%00:00 (00:00)
15 CrazyCars3D Mar 28, 2016 $2.09N/A (N/A)50,000 .. 100,0000%00:00 (00:00)
16 Rencounter Nov 4, 2016 $0.59N/A (N/A)20,000 .. 50,0000%00:00 (00:00)
17 Domino Sky Apr 5, 2016 $1.39N/A (N/A)50,000 .. 100,0000%00:00 (00:00)
18 Imagine Earth Sep 30, 2020 $12.99N/A (N/A)20,000 .. 50,0000%00:00 (00:00)
19 Ballpoint Universe - Infinite Dec 17, 2013 $3.99N/A (N/A)50,000 .. 100,0000%00:00 (00:00)
20 Munin Jun 10, 2014 $0.49N/A (N/A/68%)100,000 .. 200,0000%00:00 (00:00)
21 STARWHAL Sep 29, 2014 $11.99N/A (N/A)50,000 .. 100,0000%00:00 (00:00)
22 The Novelist Dec 10, 2013 $0.99N/A (N/A/66%)100,000 .. 200,0000%00:00 (00:00)
23 Full Bore May 6, 2014 $2.99N/A (N/A/72%)20,000 .. 50,0000%00:00 (00:00)
24 Omegalodon Mar 9, 2012 $2.49N/A (N/A)20,000 .. 50,0000%00:00 (00:00)
25 Montas Mar 24, 2014 $9.99N/A (N/A)0 .. 20,0000%00:00 (00:00)
26 Solar Flux Oct 24, 2013 $9.99N/A (N/A)100,000 .. 200,0000%00:00 (00:00)
27 Jones On Fire Mar 14, 2013 $1.49N/A (N/A)50,000 .. 100,0000%00:00 (00:00)
28 FOTONICA Nov 6, 2014 $1.49N/A (N/A/71%)50,000 .. 100,0000%00:00 (00:00)
29 10 Second Ninja Mar 5, 2014 $0.99N/A (N/A/72%)50,000 .. 100,0000%00:00 (00:00)
30 Escape Goat 2 Mar 24, 2014 $3.99N/A (N/A/76%)50,000 .. 100,0000%00:00 (00:00)
31 Labyrinthine Dreams May 26, 2015 $0.49N/A (N/A)20,000 .. 50,0000%00:00 (00:00)
32 Survivor Squad Nov 8, 2013 $0.59N/A (N/A)100,000 .. 200,0000%00:00 (00:00)
33 Pulstar Jun 11, 2014 $0.67N/A (N/A)20,000 .. 50,0000%00:00 (00:00)
34 Montague's Mount Nov 19, 2013 $4.99N/A (N/A/39%)20,000 .. 50,0000%00:00 (00:00)
35 Karma Miwa Aug 12, 2016 $0.99N/A (N/A)20,000 .. 50,0000%00:00 (00:00)
36 Please, Don't Touch Anything 3D Dec 7, 2016 $4.49N/A (N/A)20,000 .. 50,0000%00:00 (00:00)
37 Super Duper Party Pooper Jun 6, 2016 $0.49N/A (N/A/40%)100,000 .. 200,0000%00:00 (00:00)
38 mr.President Prologue Episode Sep 20, 2016 $0.49N/A (N/A)20,000 .. 50,0000%00:00 (00:00)
39 DashBored Jun 13, 2016 $1.74N/A (N/A)20,000 .. 50,0000%00:00 (00:00)
40 NORTH Apr 27, 2016 $0.49N/A (N/A)200,000 .. 500,0000%00:00 (00:00)
41 You Deserve Aug 19, 2016 $0.49N/A (N/A)20,000 .. 50,0000%00:00 (00:00)
42 New Retro Arcade: Neon Nov 19, 2019 $13.39N/A (N/A)0 .. 20,0000%00:00 (00:00)
43 Dinosaur Forest May 17, 2017 $0.49N/A (N/A)50,000 .. 100,0000%00:00 (00:00)
44 The Nest Jun 14, 2016 FreeN/A (N/A)0 .. 20,0000%00:00 (00:00)
45 Showdown Adventure Sep 23, 2016 $2.99N/A (N/A)0 .. 20,0000%00:00 (00:00)
46 Scanner Sombre Apr 26, 2017 $1.19N/A (N/A/67%)100,000 .. 200,0000%00:00 (00:00)
47 Joana's Life Sep 1, 2016 $2.99N/A (N/A)50,000 .. 100,0000%00:00 (00:00)
48 Star Drifter Jun 1, 2016 $0.49N/A (N/A)200,000 .. 500,0000%00:00 (00:00)
49 It Comes Around - A Kinetic Novel Sep 29, 2016 $2.99N/A (N/A)20,000 .. 50,0000%00:00 (00:00)
50 Call Of The Mighty Warriors Jun 2, 2016 $0.49N/A (N/A)20,000 .. 50,0000%00:00 (00:00)
51 Starship Annihilator Sep 2, 2016 $0.49N/A (N/A)50,000 .. 100,0000%00:00 (00:00)
52 Back to Bed Aug 6, 2014 $1.19N/A (N/A)500,000 .. 1,000,0001.82%00:48 (00:16)
53 The Promised Land Jul 11, 2012 $0.69N/A (N/A)20,000 .. 50,0000%00:00 (00:00)
54 Mega Coin Squad Aug 15, 2014 $5.99N/A (N/A/56%)0 .. 20,0000%00:00 (00:00)
55 TownCraft Feb 25, 2015 $9.99N/A (N/A)0 .. 20,0000%00:00 (00:00)
56 Rabbit Hole 3D: Steam Edition Apr 25, 2014 $1.01N/A (N/A)50,000 .. 100,0000%00:00 (00:00)
57 Dreaming Sarah Mar 12, 2015 $0.59N/A (N/A)100,000 .. 200,0000%00:00 (00:00)
58 ReignMaker Apr 16, 2014 $14.99N/A (N/A)50,000 .. 100,0000%00:00 (00:00)
59 Frederic: Evil Strikes Back May 23, 2014 $0.79N/A (N/A)50,000 .. 100,0000%00:00 (00:00)
60 Autocraft Sep 20, 2017 $2.49N/A (N/A)20,000 .. 50,0000%00:00 (00:00)
61 Rhythm Destruction Jun 16, 2014 $4.99N/A (N/A)50,000 .. 100,0000%00:00 (00:00)
62 Volt Apr 14, 2014 $0.99N/A (N/A)50,000 .. 100,0000%00:00 (00:00)
63 TRISTOY Jan 15, 2015 $1.39N/A (N/A/49%)20,000 .. 50,0000%00:00 (00:00)
64 Three Dead Zed Jul 7, 2014 $5.99N/A (N/A)50,000 .. 100,00014.29%03:08 (01:02)
65 Concursion Jun 6, 2014 $0.99N/A (N/A/66%)20,000 .. 50,0000%00:00 (00:00)
66 Uriel's Chasm Sep 12, 2014 $0.74N/A (N/A)200,000 .. 500,0000%00:00 (00:00)
67 Fancy Skulls Jun 16, 2014 $8.99N/A (N/A)20,000 .. 50,0000%00:00 (00:00)
68 Cosmochoria Apr 27, 2015 $9.99N/A (N/A)20,000 .. 50,0000%00:00 (00:00)
69 Three Kingdoms The Last Warlord | 三國志漢末霸業 May 26, 2017 $6.79N/A (N/A)20,000 .. 50,0000%00:00 (00:00)
70 GORN Jul 18, 2019 $9.99N/A (N/A/85%)200,000 .. 500,0000%00:00 (00:00)
71 Guns of Icarus Alliance Mar 31, 2017 $0.74N/A (N/A)50,000 .. 100,0000%00:00 (00:00)
72 Snake Pass Mar 28, 2017 $5.99N/A (N/A/71%)200,000 .. 500,0005.66%03:58 (01:59)
73 The Archotek Project Apr 28, 2017 $0.99N/A (N/A)200,000 .. 500,0001.14%276:59 (95:49)
74 Wayout Nov 4, 2016 $0.49N/A (N/A)50,000 .. 100,0000%00:00 (00:00)
75 Witch It May 31, 2017 $7.49N/A (N/A)200,000 .. 500,0006.25%02:29 (02:28)
76 Introvert Quest Mar 15, 2017 $0.49N/A (N/A)100,000 .. 200,0000%00:00 (00:00)
77 Child Phobia: Nightcoming Fears Dec 20, 2016 $1.99N/A (N/A)20,000 .. 50,0000%00:00 (00:00)
78 Mistwood Heroes Dec 30, 2016 $0.49N/A (N/A)20,000 .. 50,0000%00:00 (00:00)
79 Glorkian Warrior: The Trials Of Glork Mar 24, 2015 $1.35N/A (N/A)20,000 .. 50,0000%00:00 (00:00)
80 The Deer God Feb 27, 2015 $7.49N/A (N/A/59%)20,000 .. 50,0000%00:00 (00:00)
81 Countless Rooms of Death Feb 20, 2014 $0.99N/A (N/A)20,000 .. 50,0000%00:00 (00:00)
82 Tulpa Jan 29, 2015 $2.99N/A (N/A)50,000 .. 100,0000%00:00 (00:00)
83 Hangeki Aug 11, 2014 $4.99N/A (N/A)0 .. 20,0000%00:00 (00:00)
84 Phoenix Force Nov 13, 2014 $0.79N/A (N/A)50,000 .. 100,0000%00:00 (00:00)
85 Velocibox Sep 8, 2014 $2.49N/A (N/A)50,000 .. 100,0000%00:00 (00:00)
86 Dwarf Tower May 5, 2014 $0.99N/A (N/A)20,000 .. 50,0000%00:00 (00:00)
87 Squishy the Suicidal Pig Oct 23, 2014 $0.59N/A (N/A)200,000 .. 500,0000%00:00 (00:00)
88 Chronicles of a Dark Lord: Episode 1 Tides of Fate Complete Dec 19, 2014 N/AN/A (N/A)50,000 .. 100,0000%00:00 (00:00)
89 Great Permutator Sep 15, 2014 $1.04N/A (N/A)20,000 .. 50,0000%00:00 (00:00)
90 Bermuda Mar 17, 2015 $2.99N/A (N/A)50,000 .. 100,0000%00:00 (00:00)
91 Ninja Pizza Girl Sep 30, 2015 $1.74N/A (N/A/82%)50,000 .. 100,0000%00:00 (00:00)
92 TIMEframe Jul 7, 2015 $2.99N/A (N/A)50,000 .. 100,0000%00:00 (00:00)
93 Disorder Jan 12, 2015 $3.99N/A (N/A/61%)20,000 .. 50,0000%00:00 (00:00)
94 On A Roll 3D Feb 12, 2015 $1.99N/A (N/A)50,000 .. 100,0000%00:00 (00:00)
95 Horizon Shift May 29, 2015 $0.99N/A (N/A)100,000 .. 200,0000%00:00 (00:00)
96 Orbit HD Mar 18, 2015 $0.99N/A (N/A)20,000 .. 50,0000%00:00 (00:00)
97 Pizza Express Jun 25, 2015 $0.69N/A (N/A)20,000 .. 50,0000%00:00 (00:00)
98 Inside My Radio May 11, 2015 $2.99N/A (N/A/68%)20,000 .. 50,0000%00:00 (00:00)
99 The Adventures of Mr. Bobley Jun 30, 2015 $0.99N/A (N/A)50,000 .. 100,0000%00:00 (00:00)
100 Luckslinger Jul 16, 2015 $9.99N/A (N/A/76%)20,000 .. 50,0000%00:00 (00:00)
101 It came from space and ate our brains Mar 19, 2015 $11.24N/A (N/A)200,000 .. 500,0000%00:00 (00:00)
102 Canabalt Apr 30, 2015 $1.19N/A (N/A)20,000 .. 50,0000%00:00 (00:00)
103 Disillusions Manga Horror Apr 6, 2013 $0.99N/A (N/A)20,000 .. 50,0000%00:00 (00:00)
104 Hare In The Hat Apr 1, 2015 $1.19N/A (N/A)50,000 .. 100,0000%00:00 (00:00)
105 Rats - Time is running out! Aug 19, 2015 $4.99N/A (N/A)20,000 .. 50,0000%00:00 (00:00)
106 Spellsworn Mar 13, 2018 FreeN/A (N/A)100,000 .. 200,0005.56%00:12 (00:04)
107 Bunker - The Underground Game May 21, 2015 $0.79N/A (N/A/70%)0 .. 20,0000%00:00 (00:00)
108 Luna Sky Oct 2, 2015 $12.99N/A (N/A)50,000 .. 100,0000%00:00 (00:00)
109 Leo’s Fortune - HD Edition Sep 8, 2015 $3.49N/A (N/A)0 .. 20,0000%00:00 (00:00)
110 Interstellar Rift Jun 23, 2015 $12.72N/A (N/A)50,000 .. 100,0000%00:00 (00:00)
111 Beyond Eyes Aug 11, 2015 $2.99N/A (N/A/60%)100,000 .. 200,0000%00:00 (00:00)
112 Polyball Dec 1, 2017 $1.49N/A (N/A)100,000 .. 200,0001.52%00:26 (00:17)
113 Unmechanical Aug 8, 2012 $4.99N/A (N/A/74%)100,000 .. 200,0000%00:00 (00:00)
114 Element4l May 24, 2013 $8.99N/A (N/A/77%)50,000 .. 100,0000%00:00 (00:00)
115 Sugar Cube: Bittersweet Factory Nov 7, 2012 $1.74N/A (N/A)20,000 .. 50,0000%00:00 (00:00)
116 Poöf Nov 8, 2013 $6.99N/A (N/A)20,000 .. 50,0000%00:00 (00:00)
117 Home Jun 1, 2012 $0.99N/A (N/A/69%)200,000 .. 500,0000%00:00 (00:00)
118 BIT.TRIP BEAT Nov 2, 2010 $3.99N/A (N/A)200,000 .. 500,0000%00:00 (00:00)
119 Puddle Nov 9, 2012 $7.99N/A (N/A)50,000 .. 100,0000%00:00 (00:00)
120 Super Splatters Jun 26, 2013 N/AN/A (N/A/73%)50,000 .. 100,0000%00:00 (00:00)
121 Papo & Yo Apr 18, 2013 $8.99N/A (N/A/70%)20,000 .. 50,0000%00:00 (00:00)
122 SOL: Exodus Jan 25, 2012 $7.99N/A (N/A/57%)50,000 .. 100,0000%00:00 (00:00)
123 Dream Jul 31, 2015 $1.79N/A (N/A/59%)50,000 .. 100,0000%00:00 (00:00)
124 Titan Attacks! Feb 3, 2012 $4.99N/A (N/A)50,000 .. 100,0000%00:00 (00:00)
125 Godus At some point $14.99N/A (N/A)50,000 .. 100,0000%00:00 (00:00)
126 Tales From Space: Mutant Blobs Attack Aug 15, 2012 $2.49N/A (N/A/83%)100,000 .. 200,0000%00:00 (00:00)
127 Wake At some point $4.99N/A (N/A)0 .. 20,0000%00:00 (00:00)
128 All Zombies Must Die!: Scorepocalypse Apr 19, 2012 $4.99N/A (N/A)20,000 .. 50,0000%00:00 (00:00)
129 Zack Zero Apr 29, 2013 $2.99N/A (N/A)50,000 .. 100,0000%00:00 (00:00)
130 Stray Cat Crossing Aug 28, 2015 $2.99N/A (N/A)20,000 .. 50,0000%00:00 (00:00)
131 Press X to Not Die Oct 6, 2017 $0.74N/A (N/A)50,000 .. 100,0000%00:00 (00:00)
132 Earth Overclocked Dec 4, 2015 $0.99N/A (N/A)20,000 .. 50,0000%00:00 (00:00)
133 1,000 Heads Among the Trees Dec 11, 2015 $0.99N/A (N/A)100,000 .. 200,0000%00:00 (00:00)
134 iZBOT Sep 1, 2015 $11.99N/A (N/A)20,000 .. 50,0000%00:00 (00:00)
135 Monument Jun 5, 2015 $0.71N/A (N/A)100,000 .. 200,0000%00:00 (00:00)
136 Redemption: Eternal Quest Aug 28, 2015 $0.79N/A (N/A)100,000 .. 200,0000%00:00 (00:00)
137 Western Press Apr 21, 2016 $0.99N/A (N/A)20,000 .. 50,0000%00:00 (00:00)
138 Void Invaders Aug 14, 2015 $0.5N/A (N/A)20,000 .. 50,0000%00:00 (00:00)
139 Sky Rogue Aug 24, 2017 $9.99N/A (N/A)20,000 .. 50,0000%00:00 (00:00)
140 Blaster Shooter GunGuy! Aug 10, 2015 $0.49N/A (N/A)50,000 .. 100,0000%00:00 (00:00)
141 Action Alien Jun 26, 2015 $3.59N/A (N/A)50,000 .. 100,0000%00:00 (00:00)
142 Wild Island Quest Sep 4, 2015 $0.49N/A (N/A)50,000 .. 100,0000%00:00 (00:00)
143 Aviary Attorney Dec 21, 2015 $14.99N/A (N/A/77%)50,000 .. 100,0000%00:00 (00:00)
144 Shmadow Nov 3, 2015 $1.99N/A (N/A)20,000 .. 50,0000%00:00 (00:00)
145 none Nov 4, 2015 N/AN/A (N/A)20,000 .. 50,0000%00:00 (00:00)
146 Kitchen Simulator 2015 Sep 4, 2015 $0.49N/A (N/A)20,000 .. 50,0000%00:00 (00:00)

Tags over time:

Access restricted.

This feature is only available to users with special access rights. Sorry.

If you want to proceed, you need to register or log in first and then back Steam Spy on Patreon. Look for Indie or Pro pledge.

Don't forget to use the same email as on Steam Spy!

Owners of this game also own:

Access restricted.

This feature is only available to users with special access rights. Sorry.

If you want to proceed, you need to register or log in first and then back Steam Spy on Patreon. Look for Indie or Pro pledge.

Don't forget to use the same email as on Steam Spy!

Playtime distribution:

Access restricted.

This feature is only available to users with special access rights. Sorry.

If you want to proceed, you need to register or log in first and then back Steam Spy on Patreon. Look for Indie or Pro pledge.

Don't forget to use the same email as on Steam Spy!

Playtime (2 weeks):

Access restricted.

This feature is only available to users with special access rights. Sorry.

If you want to proceed, you need to register or log in first and then back Steam Spy on Patreon. Look for Indie or Pro pledge.

Don't forget to use the same email as on Steam Spy!

User reviews:

Login required.

Please register or log in to see this information.